createdAt,value
2022-09-23T00:01:26.546Z,97452.23
2022-09-23T00:03:54.613Z,97449.95
2022-09-23T00:06:24.375Z,97450.05
2022-09-23T00:08:52.685Z,97445.05
2022-09-23T00:11:26.968Z,97448.13
2022-09-23T00:13:57.439Z,97442.60
2022-09-23T00:16:32.869Z,97444.29
2022-09-23T00:19:02.524Z,97442.39
2022-09-23T00:21:30.990Z,97443.30
2022-09-23T00:23:58.887Z,97439.00
2022-09-23T00:26:27.795Z,97443.30
2022-09-23T00:28:55.785Z,97442.58
2022-09-23T00:31:26.133Z,97439.98
2022-09-23T00:34:01.384Z,97437.16
2022-09-23T00:36:32.334Z,97438.42
2022-09-23T00:39:00.238Z,97437.63
2022-09-23T00:41:28.243Z,97436.05
2022-09-23T00:43:58.775Z,97435.16
2022-09-23T00:46:37.000Z,97438.91
2022-09-23T00:49:12.587Z,97436.55
2022-09-23T00:51:47.767Z,97440.10
2022-09-23T00:54:16.633Z,97437.64
2022-09-23T00:56:45.101Z,97444.52
2022-09-23T00:59:13.937Z,97438.19
2022-09-23T01:01:43.876Z,97441.85
2022-09-23T01:04:12.911Z,97443.59
2022-09-23T01:06:41.078Z,97445.94
2022-09-23T01:09:08.999Z,97447.73
2022-09-23T01:11:49.675Z,97448.64
2022-09-23T01:14:37.480Z,97445.34
2022-09-23T01:17:08.339Z,97451.77
2022-09-23T01:20:15.329Z,97451.89
2022-09-23T01:22:52.103Z,97456.02
2022-09-23T01:25:19.931Z,97453.61
2022-09-23T01:28:20.951Z,97459.77
2022-09-23T01:31:04.962Z,97458.90
2022-09-23T01:34:02.297Z,97464.59
2022-09-23T01:36:53.473Z,97464.41
2022-09-23T01:39:30.558Z,97460.16
2022-09-23T01:41:58.313Z,97460.59
2022-09-23T01:44:35.143Z,97464.08
2022-09-23T01:47:15.440Z,97464.15
2022-09-23T01:49:59.144Z,97470.14
2022-09-23T01:52:39.631Z,97463.96
2022-09-23T01:55:12.898Z,97468.77
2022-09-23T01:57:45.037Z,97467.48
2022-09-23T02:00:18.538Z,97468.81
2022-09-23T02:02:50.089Z,97463.73
2022-09-23T02:05:43.193Z,97465.27
2022-09-23T02:08:37.926Z,97466.46
2022-09-23T02:11:12.076Z,97465.02
2022-09-23T02:14:00.968Z,97464.58
2022-09-23T02:16:33.946Z,97464.67
2022-09-23T02:19:04.835Z,97466.52
2022-09-23T02:21:43.924Z,97462.59
2022-09-23T02:24:19.226Z,97464.64
2022-09-23T02:26:52.855Z,97462.42
2022-09-23T02:29:32.336Z,97461.35
2022-09-23T02:32:08.406Z,97461.96
2022-09-23T02:34:41.705Z,97462.91
2022-09-23T02:37:24.133Z,97465.13
2022-09-23T02:40:22.703Z,97467.79
2022-09-23T02:42:53.241Z,97465.27
2022-09-23T02:45:21.057Z,97464.02
2022-09-23T02:47:55.340Z,97460.19
2022-09-23T02:50:23.330Z,97461.59
2022-09-23T02:52:51.349Z,97461.80
2022-09-23T02:55:24.465Z,97462.02
2022-09-23T02:57:53.646Z,97463.61
2022-09-23T03:00:21.460Z,97469.27
2022-09-23T03:03:06.431Z,97473.33
2022-09-23T03:05:43.830Z,97477.05
2022-09-23T03:08:25.917Z,97479.02
2022-09-23T03:11:02.122Z,97479.98
2022-09-23T03:13:58.630Z,97477.61
2022-09-23T03:16:29.491Z,97475.92
2022-09-23T03:19:15.777Z,97474.78
2022-09-23T03:22:01.144Z,97477.34
2022-09-23T03:24:32.417Z,97477.17
2022-09-23T03:27:13.966Z,97476.05
2022-09-23T03:29:47.899Z,97474.11
2022-09-23T03:32:19.094Z,97475.66
2022-09-23T03:34:51.551Z,97475.54
2022-09-23T03:37:40.981Z,97475.25
2022-09-23T03:40:25.679Z,97475.36
2022-09-23T03:42:57.257Z,97477.93
2022-09-23T03:45:29.965Z,97475.33
2022-09-23T03:47:58.021Z,97469.90
2022-09-23T03:50:25.926Z,97467.41
2022-09-23T03:52:55.960Z,97465.50
2022-09-23T03:55:24.210Z,97463.34
2022-09-23T03:57:52.182Z,97467.40
2022-09-23T04:00:20.147Z,97463.84
2022-09-23T04:02:49.925Z,97463.86
2022-09-23T04:05:18.153Z,97460.45
2022-09-23T04:07:46.199Z,97462.27
2022-09-23T04:10:14.109Z,97459.84
2022-09-23T04:12:42.020Z,97458.44
2022-09-23T04:15:10.519Z,97458.66
2022-09-23T04:17:38.304Z,97460.34
2022-09-23T04:20:06.665Z,97461.38
2022-09-23T04:22:35.174Z,97462.70
2022-09-23T04:25:03.297Z,97461.00
2022-09-23T04:27:35.448Z,97459.55
2022-09-23T04:30:07.232Z,97459.01
2022-09-23T04:32:36.413Z,97465.14
2022-09-23T04:35:05.172Z,97466.29
2022-09-23T04:37:33.213Z,97466.84
2022-09-23T04:40:01.289Z,97471.34
2022-09-23T04:42:30.224Z,97468.90
2022-09-23T04:44:58.290Z,97472.78
2022-09-23T04:47:26.209Z,97481.01
2022-09-23T04:49:59.062Z,97480.17
2022-09-23T04:52:27.789Z,97481.93
2022-09-23T04:54:55.816Z,97479.67
2022-09-23T04:57:24.761Z,97475.70
2022-09-23T04:59:54.612Z,97475.63
2022-09-23T05:02:23.450Z,97469.95
2022-09-23T05:04:51.268Z,97473.16
2022-09-23T05:07:19.229Z,97468.13
2022-09-23T05:09:47.362Z,97466.97
2022-09-23T05:12:15.260Z,97470.73
2022-09-23T05:14:43.089Z,97469.80
2022-09-23T05:17:13.041Z,97468.55
2022-09-23T05:19:40.879Z,97468.58
2022-09-23T05:22:08.685Z,97469.73
2022-09-23T05:24:36.585Z,97469.98
2022-09-23T05:27:07.336Z,97465.77
2022-09-23T05:29:35.843Z,97468.66
2022-09-23T05:32:03.805Z,97469.70
2022-09-23T05:34:32.472Z,97474.12
2022-09-23T05:37:00.328Z,97480.20
2022-09-23T05:39:29.131Z,97486.50
2022-09-23T05:41:57.023Z,97487.35
2022-09-23T05:44:24.823Z,97488.16
2022-09-23T05:46:53.122Z,97487.19
2022-09-23T05:49:29.665Z,97489.37
2022-09-23T05:52:09.163Z,97488.35
2022-09-23T05:54:38.092Z,97495.11
2022-09-23T05:57:06.394Z,97491.71
2022-09-23T05:59:34.241Z,97495.53
2022-09-23T06:02:02.167Z,97498.27
2022-09-23T06:04:30.195Z,97499.10
2022-09-23T06:07:02.781Z,97500.42
2022-09-23T06:09:36.178Z,97499.46
2022-09-23T06:12:06.535Z,97498.83
2022-09-23T06:14:34.477Z,97497.98
2022-09-23T06:17:02.400Z,97501.23
2022-09-23T06:19:30.209Z,97503.22
2022-09-23T06:21:58.190Z,97501.52
2022-09-23T06:24:30.841Z,97501.99
2022-09-23T06:26:59.381Z,97504.27
2022-09-23T06:29:27.213Z,97508.18
2022-09-23T06:31:55.087Z,97505.17
2022-09-23T06:34:22.977Z,97507.73
2022-09-23T06:36:51.865Z,97502.41
2022-09-23T06:39:19.661Z,97505.75
2022-09-23T06:41:47.611Z,97503.92
2022-09-23T06:44:16.191Z,97511.79
2022-09-23T06:46:44.307Z,97507.42
2022-09-23T06:49:13.130Z,97512.95
2022-09-23T06:51:41.445Z,97511.34
2022-09-23T06:54:11.351Z,97512.67
2022-09-23T06:56:40.211Z,97508.61
2022-09-23T06:59:11.058Z,97515.05
2022-09-23T07:01:39.368Z,97512.46
2022-09-23T07:04:11.596Z,97517.20
2022-09-23T07:06:40.083Z,97520.97
2022-09-23T07:09:08.562Z,97518.02
2022-09-23T07:11:37.747Z,97521.91
2022-09-23T07:14:06.263Z,97520.67
2022-09-23T07:16:34.128Z,97519.48
2022-09-23T07:19:02.816Z,97516.62
2022-09-23T07:21:30.849Z,97521.63
2022-09-23T07:23:58.751Z,97522.83
2022-09-23T07:26:26.615Z,97521.19
2022-09-23T07:28:57.008Z,97513.58
2022-09-23T07:31:37.319Z,97517.95
2022-09-23T07:34:11.682Z,97516.67
2022-09-23T07:36:41.191Z,97516.08
2022-09-23T07:39:11.890Z,97520.60
2022-09-23T07:41:41.945Z,97516.48
2022-09-23T07:44:11.692Z,97518.16
2022-09-23T07:46:40.397Z,97515.86
2022-09-23T07:49:08.894Z,97513.48
2022-09-23T07:51:39.004Z,97512.45
2022-09-23T07:54:11.270Z,97513.45
2022-09-23T07:56:39.935Z,97511.40
2022-09-23T07:59:13.360Z,97512.31
2022-09-23T08:01:44.472Z,97516.70
2022-09-23T08:04:22.786Z,97517.62
2022-09-23T08:06:58.881Z,97511.94
2022-09-23T08:09:31.977Z,97514.95
2022-09-23T08:12:00.958Z,97517.50
2022-09-23T08:14:32.818Z,97509.41
2022-09-23T08:17:00.558Z,97509.92
2022-09-23T08:19:28.383Z,97515.14
2022-09-23T08:21:57.722Z,97509.46
2022-09-23T08:24:26.631Z,97505.13
2022-09-23T08:26:55.005Z,97508.64
2022-09-23T08:29:25.210Z,97508.97
2022-09-23T08:31:54.262Z,97504.80
2022-09-23T08:34:23.630Z,97502.91
2022-09-23T08:36:52.555Z,97501.03
2022-09-23T08:39:22.841Z,97499.32
2022-09-23T08:41:58.418Z,97495.95
2022-09-23T08:44:45.348Z,97495.23
2022-09-23T08:47:25.045Z,97488.23
2022-09-23T08:49:59.295Z,97488.73
2022-09-23T08:52:57.248Z,97483.38
2022-09-23T08:55:48.285Z,97487.38
2022-09-23T08:58:51.500Z,97486.33
2022-09-23T09:01:28.299Z,97483.58
2022-09-23T09:04:14.523Z,97487.03
2022-09-23T09:07:03.430Z,97484.59
2022-09-23T09:10:04.120Z,97483.82
2022-09-23T09:12:41.309Z,97486.06
2022-09-23T09:15:16.054Z,97483.19
2022-09-23T09:18:07.862Z,97480.58
2022-09-23T09:20:57.358Z,97485.53
2022-09-23T09:24:10.186Z,97483.59
2022-09-23T09:26:40.480Z,97480.60
2022-09-23T09:29:35.008Z,97475.84
2022-09-23T09:32:38.998Z,97473.40
2022-09-23T09:35:21.756Z,97472.43
2022-09-23T09:37:49.656Z,97469.67
2022-09-23T09:40:17.817Z,97467.50
2022-09-23T09:42:49.382Z,97472.12
2022-09-23T09:45:46.778Z,97473.90
2022-09-23T09:48:22.768Z,97472.70
2022-09-23T09:50:53.227Z,97471.37
2022-09-23T09:53:27.118Z,97462.39
2022-09-23T09:56:17.148Z,97465.23
2022-09-23T09:58:49.679Z,97462.64
2022-09-23T10:01:18.841Z,97461.91
2022-09-23T10:03:47.367Z,97464.17
2022-09-23T10:06:19.116Z,97461.84
2022-09-23T10:09:19.294Z,97463.12
2022-09-23T10:12:16.051Z,97464.80
2022-09-23T10:14:46.038Z,97465.42
2022-09-23T10:17:24.545Z,97464.11
2022-09-23T10:20:01.044Z,97468.78
2022-09-23T10:22:33.900Z,97468.48
2022-09-23T10:25:08.024Z,97469.19
2022-09-23T10:27:36.851Z,97464.39
2022-09-23T10:30:21.817Z,97467.85
2022-09-23T10:32:54.364Z,97463.30
2022-09-23T10:35:24.653Z,97461.79
2022-09-23T10:38:00.473Z,97462.65
2022-09-23T10:41:02.407Z,97460.58
2022-09-23T10:44:04.479Z,97459.98
2022-09-23T10:46:38.429Z,97456.18
2022-09-23T10:49:43.154Z,97453.07
2022-09-23T10:52:32.111Z,97451.98
2022-09-23T10:55:08.943Z,97444.74
2022-09-23T10:57:46.282Z,97446.20
2022-09-23T11:00:52.074Z,97445.26
2022-09-23T11:03:42.174Z,97444.20
2022-09-23T11:06:48.180Z,97440.45
2022-09-23T11:09:53.847Z,97442.92
2022-09-23T11:12:44.412Z,97440.35
2022-09-23T11:15:12.192Z,97443.95
2022-09-23T11:18:07.158Z,97440.72
2022-09-23T11:20:42.034Z,97441.49
2022-09-23T11:23:44.134Z,97437.30
2022-09-23T11:26:15.000Z,97434.62
2022-09-23T11:28:55.418Z,97434.97
2022-09-23T11:31:31.651Z,97431.12
2022-09-23T11:34:25.467Z,97434.89
2022-09-23T11:36:59.946Z,97434.56
2022-09-23T11:39:36.918Z,97431.98
2022-09-23T11:42:09.577Z,97432.42
2022-09-23T11:44:42.180Z,97429.68
2022-09-23T11:47:24.778Z,97422.46
2022-09-23T11:50:02.648Z,97418.09
2022-09-23T11:52:41.683Z,97411.88
2022-09-23T11:55:25.896Z,97408.79
2022-09-23T11:58:00.240Z,97409.59
2022-09-23T12:00:34.525Z,97413.10
2022-09-23T12:03:08.223Z,97411.69
2022-09-23T12:05:42.621Z,97410.61
2022-09-23T12:08:18.182Z,97414.73
2022-09-23T12:10:55.446Z,97415.81
2022-09-23T12:13:51.620Z,97415.56
2022-09-23T12:16:28.685Z,97412.55
2022-09-23T12:19:19.723Z,97416.30
2022-09-23T12:21:58.368Z,97415.20
2022-09-23T12:24:44.544Z,97413.43
2022-09-23T12:27:32.086Z,97408.29
2022-09-23T12:30:04.862Z,97407.58
2022-09-23T12:32:34.117Z,97406.65
2022-09-23T12:35:03.028Z,97400.83
2022-09-23T12:37:38.325Z,97401.65
2022-09-23T12:40:33.186Z,97403.67
2022-09-23T12:43:02.514Z,97404.82
2022-09-23T12:45:34.923Z,97404.16
2022-09-23T12:48:28.004Z,97407.55
2022-09-23T12:51:16.486Z,97407.45
2022-09-23T12:54:21.333Z,97410.94
2022-09-23T12:56:59.089Z,97410.79
2022-09-23T12:59:30.792Z,97406.30
2022-09-23T13:02:20.005Z,97407.23
2022-09-23T13:05:28.727Z,97401.23
2022-09-23T13:08:10.701Z,97399.68
2022-09-23T13:10:46.777Z,97395.13
2022-09-23T13:13:32.013Z,97389.98
2022-09-23T13:16:24.626Z,97390.25
2022-09-23T13:19:02.680Z,97391.91
2022-09-23T13:21:43.592Z,97390.26
2022-09-23T13:24:30.071Z,97395.10
2022-09-23T13:27:16.029Z,97392.55
2022-09-23T13:29:53.799Z,97393.02
2022-09-23T13:32:27.140Z,97389.89
2022-09-23T13:35:26.953Z,97390.81
2022-09-23T13:37:55.460Z,97392.99
2022-09-23T13:40:27.552Z,97391.45
2022-09-23T13:43:02.327Z,97387.81
2022-09-23T13:45:32.328Z,97384.64
2022-09-23T13:48:07.516Z,97385.23
2022-09-23T13:50:39.236Z,97381.58
2022-09-23T13:53:14.366Z,97384.21
2022-09-23T13:55:42.384Z,97385.16
2022-09-23T13:58:24.021Z,97383.91
2022-09-23T14:00:52.701Z,97384.29
2022-09-23T14:03:37.364Z,97383.50
2022-09-23T14:06:11.116Z,97386.17
2022-09-23T14:08:42.134Z,97388.57
2022-09-23T14:11:16.084Z,97385.08
2022-09-23T14:13:46.493Z,97388.02
2022-09-23T14:16:17.105Z,97391.48
2022-09-23T14:18:48.561Z,97393.14
2022-09-23T14:21:33.876Z,97392.39
2022-09-23T14:24:19.805Z,97391.42
2022-09-23T14:26:52.141Z,97391.84
2022-09-23T14:29:30.668Z,97394.63
2022-09-23T14:32:03.655Z,97396.23
2022-09-23T14:34:48.434Z,97395.43
2022-09-23T14:37:37.880Z,97396.13
2022-09-23T14:40:17.125Z,97392.34
2022-09-23T14:43:02.754Z,97396.42
2022-09-23T14:45:35.174Z,97394.23
2022-09-23T14:48:08.869Z,97395.23
2022-09-23T14:50:37.889Z,97396.67
2022-09-23T14:53:26.812Z,97399.05
2022-09-23T14:56:08.515Z,97399.80
2022-09-23T14:58:57.904Z,97403.29
2022-09-23T15:01:32.572Z,97403.64
2022-09-23T15:04:10.016Z,97399.44
2022-09-23T15:06:42.253Z,97399.66
2022-09-23T15:09:20.113Z,97404.71
2022-09-23T15:11:48.110Z,97417.30
2022-09-23T15:14:36.534Z,97422.92
2022-09-23T15:17:11.995Z,97423.42
2022-09-23T15:19:40.775Z,97423.12
2022-09-23T15:22:10.301Z,97424.86
2022-09-23T15:24:45.220Z,97429.08
2022-09-23T15:27:32.098Z,97430.16
2022-09-23T15:30:14.740Z,97431.43
2022-09-23T15:32:45.298Z,97437.06
2022-09-23T15:35:19.438Z,97436.34
2022-09-23T15:37:50.582Z,97433.54
2022-09-23T15:40:24.697Z,97437.02
2022-09-23T15:43:01.369Z,97442.63
2022-09-23T15:45:40.811Z,97441.41
2022-09-23T15:48:13.901Z,97440.55
2022-09-23T15:50:43.147Z,97442.16
2022-09-23T15:53:15.485Z,97440.02
2022-09-23T15:55:43.371Z,97440.63
2022-09-23T15:58:11.787Z,97443.08
2022-09-23T16:00:39.695Z,97437.09
2022-09-23T16:03:07.700Z,97439.91
2022-09-23T16:05:39.640Z,97436.52
2022-09-23T16:08:10.393Z,97436.67
2022-09-23T16:10:38.675Z,97435.66
2022-09-23T16:13:11.517Z,97433.67
2022-09-23T16:15:40.145Z,97436.16
2022-09-23T16:18:09.955Z,97434.69
2022-09-23T16:20:42.431Z,97429.34
2022-09-23T16:23:35.231Z,97437.04
2022-09-23T16:26:07.634Z,97439.31
2022-09-23T16:28:35.466Z,97442.13
2022-09-23T16:31:03.433Z,97438.98
2022-09-23T16:33:31.405Z,97436.77
2022-09-23T16:36:02.617Z,97438.48
2022-09-23T16:38:32.104Z,97439.90
2022-09-23T16:41:00.746Z,97433.57
2022-09-23T16:43:39.425Z,97439.64
2022-09-23T16:46:13.144Z,97440.26
2022-09-23T16:48:42.065Z,97448.58
2022-09-23T16:51:20.130Z,97452.71
2022-09-23T16:53:49.393Z,97457.16
2022-09-23T16:56:25.701Z,97450.74
2022-09-23T16:58:57.005Z,97448.20
2022-09-23T17:01:45.770Z,97450.90
2022-09-23T17:04:16.565Z,97455.20
2022-09-23T17:06:44.909Z,97455.45
2022-09-23T17:09:12.819Z,97455.37
2022-09-23T17:11:41.555Z,97455.71
2022-09-23T17:14:10.403Z,97454.57
2022-09-23T17:16:38.544Z,97458.27
2022-09-23T17:19:09.605Z,97460.58
2022-09-23T17:21:39.008Z,97458.29
2022-09-23T17:24:07.505Z,97459.80
2022-09-23T17:26:35.503Z,97464.38
2022-09-23T17:29:03.523Z,97466.75
2022-09-23T17:31:31.421Z,97461.84
2022-09-23T17:33:59.385Z,97461.27
2022-09-23T17:36:28.068Z,97469.38
2022-09-23T17:38:56.191Z,97468.83
2022-09-23T17:41:24.369Z,97461.25
2022-09-23T17:44:00.541Z,97461.13
2022-09-23T17:46:30.246Z,97457.82
2022-09-23T17:48:58.554Z,97460.21
2022-09-23T17:51:26.883Z,97465.23
2022-09-23T17:53:54.795Z,97467.29
2022-09-23T17:56:26.993Z,97472.10
2022-09-23T17:58:54.911Z,97472.45
2022-09-23T18:01:24.882Z,97470.80
2022-09-23T18:04:00.206Z,97474.73
2022-09-23T18:06:31.833Z,97472.46
2022-09-23T18:09:03.862Z,97470.91
2022-09-23T18:11:36.006Z,97476.91
2022-09-23T18:14:07.765Z,97468.89
2022-09-23T18:16:37.761Z,97465.49
2022-09-23T18:19:07.632Z,97457.70
2022-09-23T18:21:41.215Z,97463.59
2022-09-23T18:24:31.263Z,97465.12
2022-09-23T18:27:00.155Z,97467.23
2022-09-23T18:29:28.763Z,97468.52
2022-09-23T18:31:56.856Z,97469.77
2022-09-23T18:34:25.474Z,97471.23
2022-09-23T18:36:56.218Z,97467.05
2022-09-23T18:39:24.137Z,97464.14
2022-09-23T18:41:51.950Z,97463.73
2022-09-23T18:44:20.191Z,97465.03
2022-09-23T18:46:48.037Z,97461.96
2022-09-23T18:49:34.227Z,97466.77
2022-09-23T18:52:02.287Z,97467.80
2022-09-23T18:54:30.438Z,97473.77
2022-09-23T18:56:59.451Z,97472.35
2022-09-23T18:59:33.547Z,97472.17
2022-09-23T19:02:01.938Z,97474.21
2022-09-23T19:04:30.196Z,97475.25
2022-09-23T19:06:59.007Z,97479.30
2022-09-23T19:09:26.893Z,97478.40
2022-09-23T19:11:54.963Z,97479.85
2022-09-23T19:14:23.686Z,97481.93
2022-09-23T19:16:52.061Z,97477.19
2022-09-23T19:19:19.935Z,97481.03
2022-09-23T19:21:47.759Z,97480.27
2022-09-23T19:24:20.114Z,97480.39
2022-09-23T19:26:48.806Z,97482.77
2022-09-23T19:29:22.096Z,97480.47
2022-09-23T19:31:51.128Z,97480.43
2022-09-23T19:34:23.920Z,97482.88
2022-09-23T19:36:57.462Z,97483.82
2022-09-23T19:39:28.522Z,97481.57
2022-09-23T19:41:56.494Z,97479.23
2022-09-23T19:44:26.753Z,97481.88
2022-09-23T19:46:56.763Z,97479.07
2022-09-23T19:49:25.696Z,97478.34
2022-09-23T19:51:56.149Z,97481.80
2022-09-23T19:54:27.750Z,97482.13
2022-09-23T19:56:55.801Z,97484.30
2022-09-23T19:59:24.086Z,97486.45
2022-09-23T20:01:52.155Z,97486.23
2022-09-23T20:04:20.420Z,97486.61
2022-09-23T20:06:49.854Z,97486.53
2022-09-23T20:09:17.702Z,97490.23
2022-09-23T20:11:45.709Z,97492.88
2022-09-23T20:14:14.012Z,97491.56
2022-09-23T20:16:41.975Z,97492.11
2022-09-23T20:19:10.231Z,97493.10
2022-09-23T20:21:38.269Z,97492.15
2022-09-23T20:24:07.176Z,97494.32
2022-09-23T20:26:54.069Z,97491.70
2022-09-23T20:29:22.875Z,97489.92
2022-09-23T20:31:50.761Z,97491.53
2022-09-23T20:34:20.573Z,97491.55
2022-09-23T20:36:48.454Z,97488.44
2022-09-23T20:39:16.190Z,97491.46
2022-09-23T20:41:44.199Z,97490.86
2022-09-23T20:44:12.786Z,97488.81
2022-09-23T20:46:48.481Z,97486.13
2022-09-23T20:49:18.277Z,97485.94
2022-09-23T20:51:50.965Z,97485.90
2022-09-23T20:54:19.495Z,97484.83
2022-09-23T20:56:50.220Z,97484.33
2022-09-23T20:59:18.939Z,97484.63
2022-09-23T21:01:47.857Z,97486.30
2022-09-23T21:04:16.104Z,97484.04
2022-09-23T21:06:43.890Z,97488.02
2022-09-23T21:09:11.705Z,97485.88
2022-09-23T21:11:39.498Z,97488.77
2022-09-23T21:14:07.442Z,97488.44
2022-09-23T21:16:35.681Z,97488.92
2022-09-23T21:19:03.959Z,97491.16
2022-09-23T21:21:31.853Z,97492.66
2022-09-23T21:24:23.660Z,97489.01
2022-09-23T21:26:50.540Z,97487.89
2022-09-23T21:29:20.812Z,97485.46
2022-09-23T21:31:49.826Z,97484.34
2022-09-23T21:34:19.434Z,97481.56
2022-09-23T21:36:48.323Z,97483.55
2022-09-23T21:39:16.435Z,97482.20
2022-09-23T21:41:44.388Z,97483.06
2022-09-23T21:44:12.604Z,97483.78
2022-09-23T21:46:40.610Z,97486.33
2022-09-23T21:49:09.214Z,97488.92
2022-09-23T21:51:43.172Z,97486.23
2022-09-23T21:54:15.722Z,97488.28
2022-09-23T21:56:44.398Z,97484.45
2022-09-23T21:59:13.070Z,97486.94
2022-09-23T22:01:44.557Z,97486.70
2022-09-23T22:04:21.982Z,97486.20
2022-09-23T22:06:49.970Z,97481.05
2022-09-23T22:09:20.999Z,97481.98
2022-09-23T22:12:07.451Z,97484.25
2022-09-23T22:14:35.962Z,97484.31
2022-09-23T22:17:04.817Z,97485.87
2022-09-23T22:19:40.250Z,97485.42
2022-09-23T22:22:15.312Z,97485.23
2022-09-23T22:24:45.187Z,97486.64
2022-09-23T22:27:15.773Z,97486.86
2022-09-23T22:30:02.545Z,97487.59
2022-09-23T22:32:46.233Z,97484.14
2022-09-23T22:35:17.769Z,97487.05
2022-09-23T22:37:47.426Z,97489.83
2022-09-23T22:40:16.014Z,97488.66
2022-09-23T22:42:44.408Z,97490.13
2022-09-23T22:45:13.377Z,97485.67
2022-09-23T22:47:45.343Z,97484.12
2022-09-23T22:50:15.299Z,97485.23
2022-09-23T22:52:44.012Z,97485.22
2022-09-23T22:55:13.065Z,97484.17
2022-09-23T22:57:40.965Z,97484.53
2022-09-23T23:00:09.995Z,97486.25
2022-09-23T23:02:37.870Z,97490.14
2022-09-23T23:05:06.489Z,97486.64
2022-09-23T23:07:35.213Z,97490.04
2022-09-23T23:10:04.815Z,97489.52
2022-09-23T23:12:33.660Z,97487.40
2022-09-23T23:15:01.532Z,97485.42
2022-09-23T23:17:30.074Z,97486.15
2022-09-23T23:19:58.069Z,97485.73
2022-09-23T23:22:28.565Z,97484.42
2022-09-23T23:24:57.169Z,97487.14
2022-09-23T23:27:24.964Z,97488.23
2022-09-23T23:29:52.825Z,97487.65
2022-09-23T23:32:20.661Z,97484.04
2022-09-23T23:34:48.529Z,97483.58
2022-09-23T23:37:20.594Z,97481.70
2022-09-23T23:39:49.068Z,97479.42
2022-09-23T23:42:17.205Z,97476.60
2022-09-23T23:44:45.679Z,97472.15
2022-09-23T23:47:13.405Z,97472.98
2022-09-23T23:49:41.320Z,97470.04
2022-09-23T23:52:09.338Z,97472.00
2022-09-23T23:54:37.969Z,97470.49
2022-09-23T23:57:05.962Z,97466.57
2022-09-23T23:59:34.581Z,97467.73
